createdAt,value
2017-09-21T00:02:31.082Z,14.52
2017-09-21T00:05:04.956Z,25.10
2017-09-21T00:07:39.987Z,32.95
2017-09-21T00:10:16.967Z,16.58
2017-09-21T00:12:51.101Z,19.17
2017-09-21T00:15:24.976Z,37.20
2017-09-21T00:17:59.483Z,36.42
2017-09-21T00:20:34.921Z,46.25
2017-09-21T00:23:10.419Z,36.42
2017-09-21T00:25:46.193Z,26.83
2017-09-21T00:28:20.658Z,23.60
2017-09-21T00:30:54.516Z,22.23
2017-09-21T00:33:28.749Z,28.87
2017-09-21T00:36:02.434Z,42.42
2017-09-21T00:38:36.339Z,27.20
2017-09-21T00:41:10.892Z,24.02
2017-09-21T00:43:45.426Z,25.70
2017-09-21T00:46:19.330Z,42.92
2017-09-21T00:48:53.535Z,25.00
2017-09-21T00:51:28.415Z,20.58
2017-09-21T00:54:02.114Z,42.20
2017-09-21T00:56:36.519Z,27.00
2017-09-21T00:59:10.954Z,28.95
2017-09-21T01:01:44.737Z,40.95
2017-09-21T01:04:18.432Z,25.10
2017-09-21T01:06:54.011Z,17.80
2017-09-21T01:09:28.401Z,22.90
2017-09-21T01:12:02.266Z,32.17
2017-09-21T01:14:36.930Z,27.27
2017-09-21T01:17:11.040Z,21.85
2017-09-21T01:19:45.159Z,39.83
2017-09-21T01:22:19.548Z,28.95
2017-09-21T01:24:53.298Z,32.88
2017-09-21T01:27:27.028Z,28.60
2017-09-21T01:30:01.508Z,22.48
2017-09-21T01:32:35.190Z,37.92
2017-09-21T01:35:09.050Z,39.78
2017-09-21T01:37:43.597Z,53.70
2017-09-21T01:40:17.502Z,25.05
2017-09-21T01:42:52.169Z,25.50
2017-09-21T01:45:26.598Z,22.90
2017-09-21T01:48:00.834Z,19.62
2017-09-21T01:50:35.364Z,22.92
2017-09-21T01:53:08.969Z,19.70
2017-09-21T01:55:42.887Z,22.70
2017-09-21T01:58:18.251Z,22.50
2017-09-21T02:00:52.520Z,15.52
2017-09-21T02:03:26.305Z,22.83
2017-09-21T02:06:00.026Z,25.70
2017-09-21T02:08:33.679Z,26.42
2017-09-21T02:11:07.400Z,27.15
2017-09-21T02:13:41.969Z,20.77
2017-09-21T02:16:15.748Z,20.95
2017-09-21T02:18:49.456Z,20.35
2017-09-21T02:21:23.173Z,28.05
2017-09-21T02:23:57.526Z,16.62
2017-09-21T02:26:31.126Z,17.05
2017-09-21T02:29:04.846Z,21.77
2017-09-21T02:31:39.331Z,29.40
2017-09-21T02:34:13.143Z,29.37
2017-09-21T02:36:48.424Z,20.92
2017-09-21T02:39:22.200Z,24.23
2017-09-21T02:41:57.044Z,30.15
2017-09-21T02:44:30.728Z,22.85
2017-09-21T02:47:04.357Z,18.62
2017-09-21T02:49:38.015Z,27.90
2017-09-21T02:52:11.809Z,18.67
2017-09-21T02:54:45.443Z,37.22
2017-09-21T02:57:19.173Z,18.77
2017-09-21T02:59:52.701Z,27.92
2017-09-21T03:02:26.321Z,20.42
2017-09-21T03:05:00.812Z,32.35
2017-09-21T03:07:34.452Z,24.17
2017-09-21T03:10:08.224Z,18.15
2017-09-21T03:12:42.828Z,19.92
2017-09-21T03:15:16.568Z,29.23
2017-09-21T03:17:50.259Z,14.25
2017-09-21T03:20:23.867Z,23.75
2017-09-21T03:22:57.621Z,16.75
2017-09-21T03:25:31.360Z,33.00
2017-09-21T03:28:05.061Z,34.65
2017-09-21T03:30:38.762Z,19.85
2017-09-21T03:33:12.518Z,24.42
2017-09-21T03:35:46.285Z,23.80
2017-09-21T03:38:20.142Z,28.77
2017-09-21T03:40:53.933Z,20.33
2017-09-21T03:43:27.728Z,15.95
2017-09-21T03:46:01.450Z,24.17
2017-09-21T03:48:35.286Z,16.73
2017-09-21T03:51:08.942Z,17.52
2017-09-21T03:53:42.673Z,20.45
2017-09-21T03:56:17.162Z,16.00
2017-09-21T03:58:52.153Z,18.20
2017-09-21T04:01:26.853Z,17.05
2017-09-21T04:04:00.557Z,25.17
2017-09-21T04:06:34.168Z,21.37
2017-09-21T04:09:08.633Z,15.18
2017-09-21T04:11:42.345Z,21.00
2017-09-21T04:14:16.057Z,19.87
2017-09-21T04:16:49.815Z,25.15
2017-09-21T04:19:23.493Z,16.65
2017-09-21T04:21:57.122Z,27.30
2017-09-21T04:24:31.556Z,17.00
2017-09-21T04:27:05.290Z,16.85
2017-09-21T04:29:39.622Z,18.67
2017-09-21T04:32:13.458Z,23.08
2017-09-21T04:34:47.137Z,29.00
2017-09-21T04:37:21.130Z,17.27
2017-09-21T04:39:54.802Z,22.40
2017-09-21T04:42:28.590Z,16.42
2017-09-21T04:45:02.350Z,21.42
2017-09-21T04:47:36.064Z,16.70
2017-09-21T04:50:09.618Z,16.80
2017-09-21T04:52:43.327Z,21.23
2017-09-21T04:55:16.948Z,20.05
2017-09-21T04:57:50.682Z,15.95
2017-09-21T05:00:24.522Z,16.30
2017-09-21T05:02:58.200Z,16.77
2017-09-21T05:05:31.965Z,25.00
2017-09-21T05:08:05.788Z,17.37
2017-09-21T05:10:40.176Z,16.65
2017-09-21T05:13:14.031Z,32.60
2017-09-21T05:15:47.745Z,22.60
2017-09-21T05:18:21.543Z,28.95
2017-09-21T05:20:55.205Z,30.08
2017-09-21T05:23:29.762Z,18.95
2017-09-21T05:26:03.483Z,51.03
2017-09-21T05:28:37.209Z,74.90
2017-09-21T05:31:10.926Z,41.53
2017-09-21T05:33:44.621Z,54.35
2017-09-21T05:36:18.180Z,93.10
2017-09-21T05:38:51.780Z,40.83
2017-09-21T05:41:26.455Z,50.42
2017-09-21T05:44:00.042Z,48.80
2017-09-21T05:46:33.668Z,46.78
2017-09-21T05:49:07.343Z,28.73
2017-09-21T05:51:41.179Z,42.03
2017-09-21T05:54:14.967Z,32.25
2017-09-21T05:56:48.700Z,30.10
2017-09-21T05:59:22.419Z,31.23
2017-09-21T06:01:56.936Z,22.77
2017-09-21T06:04:31.508Z,32.58
2017-09-21T06:07:05.095Z,35.65
2017-09-21T06:09:38.667Z,22.05
2017-09-21T06:12:13.168Z,25.77
2017-09-21T06:14:46.801Z,32.78
2017-09-21T06:17:20.628Z,30.23
2017-09-21T06:19:54.476Z,57.25
2017-09-21T06:22:28.278Z,69.55
2017-09-21T06:25:02.049Z,60.80
2017-09-21T06:27:35.693Z,58.80
2017-09-21T06:30:09.506Z,80.05
2017-09-21T06:32:43.425Z,59.55
2017-09-21T06:35:17.297Z,32.03
2017-09-21T06:37:50.977Z,57.58
2017-09-21T06:40:25.512Z,47.62
2017-09-21T06:42:59.265Z,27.67
2017-09-21T06:45:32.869Z,17.83
2017-09-21T06:48:07.412Z,26.92
2017-09-21T06:50:40.986Z,35.08
2017-09-21T06:53:15.493Z,29.27
2017-09-21T06:55:50.034Z,28.85
2017-09-21T06:58:23.908Z,36.67
2017-09-21T07:00:57.650Z,31.17
2017-09-21T07:03:31.456Z,39.30
2017-09-21T07:06:05.187Z,33.58
2017-09-21T07:08:38.807Z,35.95
2017-09-21T07:11:13.258Z,31.65
2017-09-21T07:13:47.878Z,52.90
2017-09-21T07:16:23.070Z,22.52
2017-09-21T07:18:56.780Z,45.90
2017-09-21T07:21:30.462Z,34.03
2017-09-21T07:24:04.721Z,43.50
2017-09-21T07:26:38.428Z,26.62
2017-09-21T07:29:12.966Z,23.90
2017-09-21T07:31:47.426Z,43.58
2017-09-21T07:34:21.074Z,32.83
2017-09-21T07:36:55.596Z,23.75
2017-09-21T07:39:29.252Z,20.52
2017-09-21T07:42:02.998Z,34.85
2017-09-21T07:44:37.478Z,48.30
2017-09-21T07:47:11.180Z,27.23
2017-09-21T07:49:45.738Z,31.08
2017-09-21T07:52:19.381Z,50.70
2017-09-21T07:54:53.924Z,27.92
2017-09-21T07:57:27.681Z,12.18
2017-09-21T08:00:01.750Z,25.88
2017-09-21T08:02:36.723Z,23.77
2017-09-21T08:05:10.463Z,33.13
2017-09-21T08:07:44.106Z,36.60
2017-09-21T08:10:17.827Z,33.05
2017-09-21T08:12:51.498Z,17.58
2017-09-21T08:15:25.305Z,36.88
2017-09-21T08:17:59.517Z,50.75
2017-09-21T08:20:34.198Z,27.85
2017-09-21T08:23:08.054Z,34.45
2017-09-21T08:25:41.738Z,28.92
2017-09-21T08:28:15.449Z,29.98
2017-09-21T08:30:49.320Z,22.48
2017-09-21T08:33:24.808Z,19.98
2017-09-21T08:35:59.691Z,27.40
2017-09-21T08:38:34.126Z,8.85
2017-09-21T08:41:08.731Z,7.40
2017-09-21T08:43:42.384Z,9.00
2017-09-21T08:46:16.192Z,7.68
2017-09-21T08:48:50.565Z,11.52
2017-09-21T08:51:24.341Z,5.50
2017-09-21T08:53:59.028Z,6.05
2017-09-21T08:56:33.554Z,9.43
2017-09-21T08:59:07.241Z,6.68
2017-09-21T09:01:41.767Z,6.28
2017-09-21T09:04:15.868Z,11.18
2017-09-21T09:06:49.491Z,4.68
2017-09-21T09:09:23.181Z,5.80
2017-09-21T09:11:57.762Z,6.22
2017-09-21T09:14:31.410Z,5.45
2017-09-21T09:17:05.954Z,4.90
2017-09-21T09:19:39.861Z,5.80
2017-09-21T09:22:13.396Z,4.25
2017-09-21T09:24:47.364Z,5.65
2017-09-21T09:27:22.208Z,4.95
2017-09-21T09:29:55.862Z,5.28
2017-09-21T09:32:29.609Z,7.90
2017-09-21T09:35:04.250Z,6.43
2017-09-21T09:37:38.089Z,7.10
2017-09-21T09:40:11.882Z,9.98
2017-09-21T09:42:46.452Z,6.07
2017-09-21T09:45:20.297Z,5.68
2017-09-21T09:47:54.584Z,5.32
2017-09-21T09:50:28.145Z,8.32
2017-09-21T09:53:01.996Z,8.05
2017-09-21T09:55:35.643Z,10.02
2017-09-21T09:58:09.411Z,9.88
2017-09-21T10:00:43.945Z,8.50
2017-09-21T10:03:17.694Z,9.23
2017-09-21T10:05:51.268Z,8.38
2017-09-21T10:08:24.813Z,9.07
2017-09-21T10:10:58.453Z,11.93
2017-09-21T10:13:32.223Z,6.28
2017-09-21T10:16:05.962Z,8.00
2017-09-21T10:18:39.694Z,7.32
2017-09-21T10:21:14.104Z,5.45
2017-09-21T10:23:48.054Z,7.62
2017-09-21T10:26:23.568Z,7.22
2017-09-21T10:28:58.078Z,10.52
2017-09-21T10:31:31.772Z,6.25
2017-09-21T10:34:05.490Z,6.78
2017-09-21T10:36:39.224Z,4.87
2017-09-21T10:39:12.994Z,4.25
2017-09-21T10:41:46.771Z,8.63
2017-09-21T10:44:20.520Z,4.97
2017-09-21T10:46:54.837Z,6.20
2017-09-21T10:49:29.188Z,7.93
2017-09-21T10:52:02.934Z,6.87
2017-09-21T10:54:36.691Z,4.18
2017-09-21T10:57:10.482Z,4.53
2017-09-21T10:59:44.140Z,4.43
2017-09-21T11:02:18.008Z,4.28
2017-09-21T11:04:52.452Z,5.97
2017-09-21T11:07:26.253Z,5.18
2017-09-21T11:09:59.963Z,6.25
2017-09-21T11:12:33.827Z,6.30
2017-09-21T11:15:08.463Z,4.50
2017-09-21T11:17:42.208Z,5.25
2017-09-21T11:20:16.581Z,3.42
2017-09-21T11:22:51.047Z,4.30
2017-09-21T11:25:25.412Z,8.07
2017-09-21T11:27:59.069Z,4.75
2017-09-21T11:30:32.833Z,6.53
2017-09-21T11:33:06.439Z,3.92
2017-09-21T11:35:40.155Z,4.37
2017-09-21T11:38:13.963Z,4.53
2017-09-21T11:40:47.615Z,4.57
2017-09-21T11:43:22.103Z,7.32
2017-09-21T11:45:55.844Z,5.00
2017-09-21T11:48:30.514Z,4.12
2017-09-21T11:51:05.080Z,7.15
2017-09-21T11:53:39.435Z,4.32
2017-09-21T11:56:13.310Z,4.60
2017-09-21T11:58:47.674Z,4.47
2017-09-21T12:01:21.446Z,7.55
2017-09-21T12:03:55.094Z,4.87
2017-09-21T12:06:28.818Z,5.60
2017-09-21T12:09:02.594Z,3.55
2017-09-21T12:11:36.250Z,4.72
2017-09-21T12:14:09.859Z,3.65
2017-09-21T12:16:44.374Z,4.80
2017-09-21T12:19:18.071Z,3.53
2017-09-21T12:21:51.798Z,4.57
2017-09-21T12:24:25.438Z,3.45
2017-09-21T12:26:59.215Z,3.55
2017-09-21T12:29:33.016Z,3.60
2017-09-21T12:32:06.740Z,3.28
2017-09-21T12:34:40.517Z,3.25
2017-09-21T12:37:14.212Z,2.33
2017-09-21T12:39:47.843Z,3.10
2017-09-21T12:42:21.532Z,2.92
2017-09-21T12:44:56.270Z,2.55
2017-09-21T12:47:29.978Z,3.25
2017-09-21T12:50:03.727Z,7.75
2017-09-21T12:52:38.241Z,3.45
2017-09-21T12:55:12.062Z,4.90
2017-09-21T12:57:45.782Z,2.55
2017-09-21T13:00:19.552Z,2.37
2017-09-21T13:02:53.283Z,3.60
2017-09-21T13:05:26.970Z,2.60
2017-09-21T13:08:00.818Z,4.37
2017-09-21T13:10:34.664Z,2.83
2017-09-21T13:13:09.225Z,3.22
2017-09-21T13:15:43.715Z,2.97
2017-09-21T13:18:17.381Z,4.07
2017-09-21T13:20:51.036Z,3.25
2017-09-21T13:23:27.337Z,4.53
2017-09-21T13:26:02.534Z,2.87
2017-09-21T13:28:37.198Z,2.80
2017-09-21T13:31:11.792Z,4.82
2017-09-21T13:33:45.397Z,2.70
2017-09-21T13:36:19.088Z,3.12
2017-09-21T13:38:52.825Z,7.15
2017-09-21T13:41:27.870Z,2.70
2017-09-21T13:44:02.166Z,2.10
2017-09-21T13:46:36.285Z,3.50
2017-09-21T13:49:10.054Z,4.62
2017-09-21T13:51:44.554Z,3.50
2017-09-21T13:54:18.262Z,2.35
2017-09-21T13:56:52.217Z,2.58
2017-09-21T13:59:26.013Z,3.20
2017-09-21T14:02:00.597Z,2.90
2017-09-21T14:04:34.380Z,2.45
2017-09-21T14:07:07.986Z,3.08
2017-09-21T14:09:41.796Z,2.28
2017-09-21T14:12:15.340Z,3.28
2017-09-21T14:14:48.968Z,4.85
2017-09-21T14:17:22.594Z,2.40
2017-09-21T14:19:57.554Z,3.37
2017-09-21T14:22:32.046Z,3.05
2017-09-21T14:25:05.864Z,9.05
2017-09-21T14:27:39.558Z,2.80
2017-09-21T14:30:13.336Z,6.85
2017-09-21T14:32:47.001Z,3.55
2017-09-21T14:35:20.856Z,3.20
2017-09-21T14:37:54.508Z,3.08
2017-09-21T14:40:28.323Z,4.28
2017-09-21T14:43:02.036Z,2.60
2017-09-21T14:45:35.676Z,3.08
2017-09-21T14:48:09.348Z,3.72
2017-09-21T14:50:43.764Z,3.10
2017-09-21T14:53:18.285Z,3.15
2017-09-21T14:55:52.119Z,2.85
2017-09-21T14:58:25.828Z,4.15
2017-09-21T15:00:59.578Z,3.70
2017-09-21T15:03:33.254Z,5.30
2017-09-21T15:06:06.932Z,3.78
2017-09-21T15:08:41.610Z,3.72
2017-09-21T15:11:15.470Z,4.05
2017-09-21T15:13:49.180Z,2.80
2017-09-21T15:16:22.923Z,2.83
2017-09-21T15:18:57.891Z,2.53
2017-09-21T15:21:32.388Z,2.80
2017-09-21T15:24:06.028Z,2.92
2017-09-21T15:26:39.743Z,3.33
2017-09-21T15:29:13.520Z,2.87
2017-09-21T15:31:47.240Z,2.75
2017-09-21T15:34:20.904Z,2.87
2017-09-21T15:36:55.041Z,2.65
2017-09-21T15:39:29.653Z,2.60
2017-09-21T15:42:04.084Z,3.90
2017-09-21T15:44:38.675Z,2.55
2017-09-21T15:47:12.399Z,2.97
2017-09-21T15:49:46.114Z,2.50
2017-09-21T15:52:19.835Z,3.25
2017-09-21T15:54:54.701Z,2.62
2017-09-21T15:57:28.403Z,2.65
2017-09-21T16:00:02.634Z,2.65
2017-09-21T16:02:36.335Z,2.65
2017-09-21T16:05:09.980Z,3.12
2017-09-21T16:07:44.541Z,5.50
2017-09-21T16:10:18.246Z,3.45
2017-09-21T16:12:51.982Z,5.15
2017-09-21T16:15:26.404Z,3.00
2017-09-21T16:18:00.834Z,2.97
2017-09-21T16:20:35.415Z,4.85
2017-09-21T16:23:09.812Z,2.83
2017-09-21T16:25:43.528Z,4.65
2017-09-21T16:28:17.256Z,4.32
2017-09-21T16:30:51.031Z,5.78
2017-09-21T16:33:25.554Z,5.00
2017-09-21T16:36:00.262Z,3.67
2017-09-21T16:38:33.960Z,3.80
2017-09-21T16:41:08.401Z,2.60
2017-09-21T16:43:42.112Z,5.12
2017-09-21T16:46:16.504Z,4.72
2017-09-21T16:48:50.225Z,3.40
2017-09-21T16:51:23.898Z,3.58
2017-09-21T16:53:57.641Z,3.20
2017-09-21T16:56:31.457Z,4.00
2017-09-21T16:59:05.339Z,2.95
2017-09-21T17:01:39.777Z,3.40
2017-09-21T17:04:13.490Z,4.40
2017-09-21T17:06:47.243Z,2.62
2017-09-21T17:09:21.805Z,3.22
2017-09-21T17:11:55.460Z,3.35
2017-09-21T17:14:29.212Z,3.87
2017-09-21T17:17:03.719Z,3.55
2017-09-21T17:19:39.143Z,4.68
2017-09-21T17:22:12.834Z,6.28
2017-09-21T17:24:47.981Z,3.47
2017-09-21T17:27:21.784Z,7.60
2017-09-21T17:29:55.622Z,4.87
2017-09-21T17:32:29.366Z,4.82
2017-09-21T17:35:03.710Z,6.82
2017-09-21T17:37:37.350Z,10.35
2017-09-21T17:40:11.033Z,9.70
2017-09-21T17:42:44.741Z,7.80
2017-09-21T17:45:18.520Z,6.25
2017-09-21T17:47:52.264Z,4.57
2017-09-21T17:50:26.035Z,3.10
2017-09-21T17:52:59.687Z,7.43
2017-09-21T17:55:33.518Z,9.02
2017-09-21T17:58:07.124Z,7.47
2017-09-21T18:00:40.928Z,6.95
2017-09-21T18:03:15.442Z,6.82
2017-09-21T18:05:49.228Z,7.53
2017-09-21T18:08:23.167Z,10.07
2017-09-21T18:10:57.044Z,8.85
2017-09-21T18:13:31.577Z,37.10
2017-09-21T18:16:05.459Z,15.85
2017-09-21T18:18:40.004Z,12.35
2017-09-21T18:21:13.693Z,15.90
2017-09-21T18:23:47.422Z,16.55
2017-09-21T18:26:21.843Z,11.12
2017-09-21T18:28:55.658Z,10.65
2017-09-21T18:31:29.295Z,13.20
2017-09-21T18:34:03.033Z,23.55
2017-09-21T18:36:36.829Z,14.50
2017-09-21T18:39:10.489Z,16.02
2017-09-21T18:41:44.720Z,30.73
2017-09-21T18:44:18.334Z,15.43
2017-09-21T18:46:52.032Z,11.75
2017-09-21T18:49:25.761Z,12.23
2017-09-21T18:51:59.473Z,10.35
2017-09-21T18:54:33.244Z,7.82
2017-09-21T18:57:07.923Z,9.43
2017-09-21T18:59:41.523Z,7.72
2017-09-21T19:02:15.317Z,13.48
2017-09-21T19:04:49.326Z,15.65
2017-09-21T19:07:24.022Z,17.77
2017-09-21T19:09:57.704Z,21.10
2017-09-21T19:12:31.279Z,11.73
2017-09-21T19:15:05.189Z,13.40
2017-09-21T19:17:39.660Z,10.18
2017-09-21T19:20:14.206Z,14.35
2017-09-21T19:22:48.632Z,11.40
2017-09-21T19:25:22.287Z,16.17
2017-09-21T19:27:55.988Z,12.25
2017-09-21T19:30:30.487Z,12.00
2017-09-21T19:33:04.483Z,12.93
2017-09-21T19:35:38.094Z,8.73
2017-09-21T19:38:12.251Z,12.27
2017-09-21T19:40:47.274Z,8.23
2017-09-21T19:43:21.028Z,9.07
2017-09-21T19:45:54.791Z,6.37
2017-09-21T19:48:28.425Z,8.15
2017-09-21T19:51:02.143Z,7.05
2017-09-21T19:53:36.773Z,8.48
2017-09-21T19:56:10.570Z,10.57
2017-09-21T19:58:44.161Z,35.15
2017-09-21T20:01:18.847Z,32.72
2017-09-21T20:03:52.534Z,24.77
2017-09-21T20:06:26.236Z,25.45
2017-09-21T20:09:00.856Z,17.33
2017-09-21T20:11:34.538Z,11.52
2017-09-21T20:14:08.282Z,8.48
2017-09-21T20:16:43.054Z,9.40
2017-09-21T20:19:16.896Z,5.43
2017-09-21T20:21:50.681Z,12.02
2017-09-21T20:24:24.404Z,8.38
2017-09-21T20:26:58.100Z,7.80
2017-09-21T20:29:31.874Z,18.15
2017-09-21T20:32:05.599Z,7.28
2017-09-21T20:34:39.430Z,28.02
2017-09-21T20:37:13.067Z,19.52
2017-09-21T20:39:46.830Z,31.10
2017-09-21T20:42:20.409Z,52.40
2017-09-21T20:44:55.210Z,7.97
2017-09-21T20:47:29.894Z,10.48
2017-09-21T20:50:03.806Z,14.63
2017-09-21T20:52:38.183Z,34.40
2017-09-21T20:55:12.831Z,35.60
2017-09-21T20:57:48.676Z,34.53
2017-09-21T21:00:24.864Z,26.37
2017-09-21T21:02:58.711Z,24.02
2017-09-21T21:05:32.553Z,40.50
2017-09-21T21:08:07.100Z,27.10
2017-09-21T21:10:40.889Z,35.45
2017-09-21T21:13:14.639Z,33.78
2017-09-21T21:15:49.527Z,26.00
2017-09-21T21:18:23.390Z,31.17
2017-09-21T21:20:57.340Z,22.90
2017-09-21T21:23:31.686Z,37.30
2017-09-21T21:26:06.501Z,18.40
2017-09-21T21:28:40.250Z,33.65
2017-09-21T21:31:14.089Z,24.80
2017-09-21T21:33:47.808Z,42.67
2017-09-21T21:36:21.436Z,17.50
2017-09-21T21:38:58.130Z,27.58
2017-09-21T21:41:32.430Z,35.47
2017-09-21T21:44:06.115Z,30.67
2017-09-21T21:46:39.819Z,45.75
2017-09-21T21:49:13.555Z,20.73
2017-09-21T21:51:49.388Z,24.05
2017-09-21T21:54:23.789Z,28.60
2017-09-21T21:56:58.656Z,25.75
2017-09-21T21:59:32.567Z,38.28
2017-09-21T22:06:16.079Z,25.80
2017-09-21T22:08:51.391Z,38.97
2017-09-21T22:11:25.203Z,33.60
2017-09-21T22:13:59.050Z,26.00
2017-09-21T22:16:32.707Z,14.35
2017-09-21T22:19:06.500Z,17.37
2017-09-21T22:21:41.205Z,38.15
2017-09-21T22:24:16.070Z,20.67
2017-09-21T22:26:49.673Z,19.15
2017-09-21T22:29:24.248Z,29.95
2017-09-21T22:31:57.913Z,22.30
2017-09-21T22:34:31.838Z,38.63
2017-09-21T22:37:05.566Z,22.98
2017-09-21T22:39:39.383Z,21.48
2017-09-21T22:42:13.410Z,24.87
2017-09-21T22:44:47.170Z,29.73
2017-09-21T22:47:20.991Z,28.20
2017-09-21T22:49:54.758Z,31.48
2017-09-21T22:52:29.167Z,28.80
2017-09-21T22:55:03.020Z,17.40
2017-09-21T22:57:36.833Z,23.40
2017-09-21T23:00:10.617Z,17.75
2017-09-21T23:02:44.464Z,26.15
2017-09-21T23:05:18.104Z,23.67
2017-09-21T23:07:52.793Z,31.73
2017-09-21T23:10:27.264Z,29.80
2017-09-21T23:13:01.061Z,19.40
2017-09-21T23:15:34.913Z,11.93
2017-09-21T23:18:08.675Z,29.80
2017-09-21T23:20:43.692Z,50.10
2017-09-21T23:23:17.532Z,26.20
2017-09-21T23:25:52.227Z,26.55
2017-09-21T23:28:26.017Z,21.98
2017-09-21T23:31:00.585Z,26.48
2017-09-21T23:33:34.266Z,41.75
2017-09-21T23:36:08.866Z,14.25
2017-09-21T23:38:42.543Z,36.20
2017-09-21T23:41:16.405Z,18.73
2017-09-21T23:43:51.192Z,23.40
2017-09-21T23:46:24.832Z,25.00
2017-09-21T23:48:58.473Z,23.73
2017-09-21T23:51:33.194Z,40.78
2017-09-21T23:54:07.078Z,16.12
2017-09-21T23:56:42.185Z,29.35
2017-09-21T23:59:16.480Z,24.25
